createdAt,value
2018-07-21T00:00:25.478Z,18.30
2018-07-21T00:02:54.275Z,18.20
2018-07-21T00:05:22.812Z,18.30
2018-07-21T00:07:54.145Z,18.30
2018-07-21T00:10:22.869Z,18.30
2018-07-21T00:12:51.429Z,18.30
2018-07-21T00:15:19.955Z,18.30
2018-07-21T00:17:49.392Z,18.30
2018-07-21T00:20:18.016Z,18.30
2018-07-21T00:22:46.551Z,18.30
2018-07-21T00:25:16.694Z,18.20
2018-07-21T00:27:45.787Z,18.10
2018-07-21T00:30:15.982Z,18.00
2018-07-21T00:32:45.829Z,17.90
2018-07-21T00:35:15.314Z,17.70
2018-07-21T00:37:44.022Z,17.80
2018-07-21T00:40:13.525Z,17.80
2018-07-21T00:42:42.378Z,17.70
2018-07-21T00:45:10.941Z,17.60
2018-07-21T00:47:40.522Z,17.60
2018-07-21T00:50:09.142Z,17.60
2018-07-21T00:52:38.250Z,17.60
2018-07-21T00:55:07.586Z,17.60
2018-07-21T00:57:36.114Z,17.70
2018-07-21T01:00:05.188Z,17.70
2018-07-21T01:02:33.747Z,17.70
2018-07-21T01:05:02.311Z,17.70
2018-07-21T01:07:31.168Z,17.80
2018-07-21T01:09:59.723Z,17.50
2018-07-21T01:12:29.404Z,17.40
2018-07-21T01:14:58.581Z,17.30
2018-07-21T01:17:28.852Z,17.20
2018-07-21T01:19:57.770Z,17.20
2018-07-21T01:22:27.029Z,17.20
2018-07-21T01:24:55.558Z,17.30
2018-07-21T01:27:24.871Z,17.40
2018-07-21T01:29:55.202Z,17.50
2018-07-21T01:32:24.874Z,17.50
2018-07-21T01:34:54.455Z,17.60
2018-07-21T01:37:24.331Z,17.50
2018-07-21T01:39:52.919Z,17.50
2018-07-21T01:42:22.839Z,17.70
2018-07-21T01:44:51.599Z,17.80
2018-07-21T01:47:21.498Z,17.80
2018-07-21T01:49:50.019Z,17.90
2018-07-21T01:52:18.671Z,18.00
2018-07-21T01:54:49.030Z,18.10
2018-07-21T01:57:17.918Z,18.30
2018-07-21T01:59:46.665Z,18.30
2018-07-21T02:02:16.029Z,18.10
2018-07-21T02:04:44.767Z,18.00
2018-07-21T02:07:15.076Z,17.90
2018-07-21T02:09:44.000Z,17.90
2018-07-21T02:12:13.483Z,17.90
2018-07-21T02:14:42.406Z,18.00
2018-07-21T02:17:11.534Z,18.10
2018-07-21T02:19:41.083Z,18.20
2018-07-21T02:22:09.681Z,18.20
2018-07-21T02:24:38.202Z,18.30
2018-07-21T02:27:06.797Z,18.30
2018-07-21T02:29:35.373Z,18.40
2018-07-21T02:32:03.950Z,18.50
2018-07-21T02:34:32.908Z,18.50
2018-07-21T02:37:03.149Z,18.50
2018-07-21T02:39:31.710Z,18.60
2018-07-21T02:42:00.241Z,18.60
2018-07-21T02:44:28.814Z,18.70
2018-07-21T02:46:57.395Z,18.80
2018-07-21T02:49:25.923Z,18.80
2018-07-21T02:51:54.521Z,18.90
2018-07-21T02:54:24.351Z,19.00
2018-07-21T02:56:52.926Z,19.10
2018-07-21T02:59:21.598Z,19.10
2018-07-21T03:01:50.149Z,19.10
2018-07-21T03:04:19.078Z,19.20
2018-07-21T03:06:49.092Z,19.20
2018-07-21T03:09:17.650Z,19.20
2018-07-21T03:11:46.504Z,19.20
2018-07-21T03:14:16.372Z,19.20
2018-07-21T03:16:44.914Z,19.20
2018-07-21T03:19:15.196Z,19.20
2018-07-21T03:24:12.674Z,19.20
2018-07-21T03:26:41.210Z,19.20
2018-07-21T03:29:09.914Z,19.20
2018-07-21T03:31:38.986Z,19.20
2018-07-21T03:34:08.115Z,19.30
2018-07-21T03:36:37.372Z,19.30
2018-07-21T03:39:09.113Z,19.30
2018-07-21T03:41:37.681Z,19.40
2018-07-21T03:44:06.307Z,19.40
2018-07-21T03:46:35.011Z,19.40
2018-07-21T03:49:03.619Z,19.40
2018-07-21T03:51:33.998Z,19.40
2018-07-21T03:54:02.915Z,19.50
2018-07-21T03:56:32.198Z,19.50
2018-07-21T03:59:00.737Z,19.50
2018-07-21T04:01:29.367Z,19.50
2018-07-21T04:03:57.935Z,19.50
2018-07-21T04:06:27.473Z,19.50
2018-07-21T04:08:56.607Z,19.50
2018-07-21T04:11:25.539Z,19.50
2018-07-21T04:13:54.072Z,19.40
2018-07-21T04:16:22.980Z,19.40
2018-07-21T04:18:52.191Z,19.40
2018-07-21T04:21:20.727Z,19.40
2018-07-21T04:23:49.288Z,19.40
2018-07-21T04:26:17.800Z,19.30
2018-07-21T04:28:46.488Z,19.30
2018-07-21T04:31:17.327Z,19.30
2018-07-21T04:33:46.222Z,19.40
2018-07-21T04:36:15.755Z,19.40
2018-07-21T04:38:45.188Z,19.50
2018-07-21T04:41:14.996Z,19.50
2018-07-21T04:43:43.534Z,19.50
2018-07-21T04:46:13.479Z,19.60
2018-07-21T04:48:42.449Z,19.60
2018-07-21T04:51:11.646Z,19.60
2018-07-21T04:53:40.786Z,19.60
2018-07-21T04:56:09.535Z,19.70
2018-07-21T04:58:38.287Z,19.70
2018-07-21T05:01:06.964Z,19.70
2018-07-21T05:03:36.172Z,19.70
2018-07-21T05:06:05.034Z,19.70
2018-07-21T05:08:34.120Z,19.70
2018-07-21T05:11:02.726Z,19.70
2018-07-21T05:13:32.298Z,19.70
2018-07-21T05:16:01.215Z,19.70
2018-07-21T05:18:29.803Z,19.80
2018-07-21T05:20:58.387Z,19.80
2018-07-21T05:23:27.040Z,19.80
2018-07-21T05:25:57.798Z,19.80
2018-07-21T05:28:26.462Z,19.80
2018-07-21T05:30:55.307Z,19.80
2018-07-21T05:33:25.886Z,19.80
2018-07-21T05:35:54.419Z,19.90
2018-07-21T05:38:22.961Z,19.90
2018-07-21T05:40:51.474Z,19.90
2018-07-21T05:43:20.415Z,19.90
2018-07-21T05:45:48.973Z,20.00
2018-07-21T05:48:17.567Z,20.00
2018-07-21T05:50:46.231Z,20.00
2018-07-21T05:53:17.092Z,20.00
2018-07-21T05:55:46.851Z,20.00
2018-07-21T05:58:15.577Z,19.90
2018-07-21T06:00:44.218Z,19.90
2018-07-21T06:03:15.677Z,19.80
2018-07-21T06:05:44.313Z,19.80
2018-07-21T06:08:12.939Z,19.80
2018-07-21T06:10:41.419Z,19.60
2018-07-21T06:13:11.471Z,19.60
2018-07-21T06:15:40.020Z,19.50
2018-07-21T06:18:09.240Z,19.60
2018-07-21T06:20:37.801Z,19.60
2018-07-21T06:23:07.174Z,19.60
2018-07-21T06:25:36.305Z,19.60
2018-07-21T06:28:04.925Z,19.70
2018-07-21T06:30:33.511Z,19.60
2018-07-21T06:33:02.075Z,19.40
2018-07-21T06:35:31.780Z,19.50
2018-07-21T06:38:01.071Z,19.60
2018-07-21T06:40:29.697Z,19.60
2018-07-21T06:42:58.286Z,19.70
2018-07-21T06:45:26.887Z,19.70
2018-07-21T06:47:55.469Z,19.60
2018-07-21T06:50:24.966Z,19.80
2018-07-21T06:52:54.494Z,19.70
2018-07-21T06:55:23.029Z,19.70
2018-07-21T06:57:51.571Z,19.80
2018-07-21T07:00:21.131Z,19.90
2018-07-21T07:02:54.359Z,19.80
2018-07-21T07:05:22.980Z,19.90
2018-07-21T07:07:52.680Z,20.00
2018-07-21T07:10:22.429Z,20.00
2018-07-21T07:12:52.589Z,20.10
2018-07-21T07:15:22.502Z,19.90
2018-07-21T07:17:54.306Z,19.90
2018-07-21T07:22:51.263Z,19.90
2018-07-21T07:25:19.939Z,20.10
2018-07-21T07:27:49.184Z,20.10
2018-07-21T07:30:17.848Z,20.10
2018-07-21T07:32:47.987Z,20.10
2018-07-21T07:35:16.593Z,20.10
2018-07-21T07:37:46.079Z,20.10
2018-07-21T07:40:15.496Z,20.10
2018-07-21T07:42:46.591Z,20.10
2018-07-21T07:45:15.193Z,19.90
2018-07-21T07:47:45.147Z,19.90
2018-07-21T07:50:14.606Z,19.70
2018-07-21T07:52:44.502Z,19.90
2018-07-21T07:55:13.471Z,19.90
2018-07-21T07:57:42.062Z,19.70
2018-07-21T08:00:11.634Z,19.90
2018-07-21T08:02:40.142Z,20.00
2018-07-21T08:05:08.770Z,20.00
2018-07-21T08:07:37.310Z,20.20
2018-07-21T08:10:06.235Z,20.30
2018-07-21T08:15:03.016Z,20.40
2018-07-21T08:17:31.587Z,20.30
2018-07-21T08:20:00.135Z,20.10
2018-07-21T08:22:28.704Z,20.00
2018-07-21T08:24:57.270Z,20.20
2018-07-21T08:27:25.847Z,20.10
2018-07-21T08:29:54.378Z,20.10
2018-07-21T08:32:22.922Z,20.20
2018-07-21T08:34:51.489Z,20.20
2018-07-21T08:37:20.351Z,20.30
2018-07-21T08:39:48.922Z,20.40
2018-07-21T08:42:17.471Z,20.30
2018-07-21T08:44:46.006Z,20.30
2018-07-21T08:49:43.575Z,20.60
2018-07-21T08:52:13.221Z,20.40
2018-07-21T08:54:41.739Z,20.50
2018-07-21T08:57:10.632Z,20.40
2018-07-21T08:59:39.233Z,20.40
2018-07-21T09:02:08.195Z,20.30
2018-07-21T09:04:36.826Z,20.30
2018-07-21T09:07:05.556Z,20.40
2018-07-21T09:09:34.122Z,20.30
2018-07-21T09:12:02.659Z,20.40
2018-07-21T09:14:31.222Z,20.30
2018-07-21T09:17:01.981Z,20.30
2018-07-21T09:19:30.528Z,20.40
2018-07-21T09:21:59.079Z,20.30
2018-07-21T09:24:27.650Z,20.30
2018-07-21T09:26:56.453Z,20.40
2018-07-21T09:29:25.025Z,20.60
2018-07-21T09:34:52.334Z,20.50
2018-07-21T09:37:20.894Z,20.50
2018-07-21T09:39:49.439Z,20.40
2018-07-21T09:42:18.033Z,20.20
2018-07-21T09:44:46.602Z,20.30
2018-07-21T09:47:15.219Z,20.30
2018-07-21T09:49:43.729Z,20.10
2018-07-21T09:52:12.306Z,20.10
2018-07-21T09:54:40.936Z,20.10
2018-07-21T09:57:10.011Z,20.10
2018-07-21T09:59:38.669Z,20.30
2018-07-21T10:02:07.312Z,20.20
2018-07-21T10:04:35.941Z,20.20
2018-07-21T10:07:04.741Z,20.20
2018-07-21T10:09:33.314Z,20.20
2018-07-21T10:12:02.766Z,20.10
2018-07-21T10:14:31.430Z,20.00
2018-07-21T10:17:00.002Z,19.90
2018-07-21T10:19:28.543Z,19.90
2018-07-21T10:21:57.144Z,19.90
2018-07-21T10:24:31.034Z,20.00
2018-07-21T10:27:04.857Z,19.90
2018-07-21T10:29:33.453Z,19.80
2018-07-21T10:32:01.983Z,19.90
2018-07-21T10:34:30.574Z,19.80
2018-07-21T10:37:00.043Z,19.80
2018-07-21T10:39:28.596Z,19.90
2018-07-21T10:41:57.512Z,19.90
2018-07-21T10:44:26.124Z,19.90
2018-07-21T10:46:54.934Z,19.80
2018-07-21T10:49:23.464Z,19.70
2018-07-21T10:51:52.108Z,19.50
2018-07-21T10:54:20.783Z,19.60
2018-07-21T10:56:49.380Z,19.60
2018-07-21T11:04:43.045Z,19.80
2018-07-21T11:07:11.620Z,19.70
2018-07-21T11:09:45.681Z,19.60
2018-07-21T11:12:14.200Z,19.50
2018-07-21T11:17:11.517Z,19.90
2018-07-21T11:19:40.325Z,19.90
2018-07-21T11:22:08.798Z,19.90
2018-07-21T11:24:37.348Z,20.00
2018-07-21T11:27:05.935Z,20.00
2018-07-21T11:29:34.479Z,20.00
2018-07-21T11:32:03.775Z,20.00
2018-07-21T11:34:32.286Z,20.10
2018-07-21T11:37:00.822Z,20.10
2018-07-21T11:39:29.362Z,20.30
2018-07-21T11:41:57.936Z,20.40
2018-07-21T11:44:26.500Z,20.50
2018-07-21T11:46:55.007Z,20.60
2018-07-21T11:49:23.805Z,20.70
2018-07-21T11:51:52.324Z,20.80
2018-07-21T11:54:20.892Z,20.70
2018-07-21T11:56:49.460Z,20.70
2018-07-21T11:59:17.957Z,20.70
2018-07-21T12:01:46.526Z,20.80
2018-07-21T12:04:14.983Z,20.90
2018-07-21T12:06:43.541Z,21.10
2018-07-21T12:09:12.237Z,21.20
2018-07-21T12:11:40.765Z,21.20
2018-07-21T12:14:09.338Z,21.20
2018-07-21T12:16:37.931Z,21.20
2018-07-21T12:19:06.462Z,21.30
2018-07-21T12:21:36.944Z,21.20
2018-07-21T12:24:06.283Z,21.30
2018-07-21T12:26:36.073Z,21.30
2018-07-21T12:29:06.586Z,21.30
2018-07-21T12:31:36.537Z,21.40
2018-07-21T12:34:05.402Z,21.40
2018-07-21T12:36:34.010Z,21.60
2018-07-21T12:39:02.573Z,21.50
2018-07-21T12:41:31.140Z,21.80
2018-07-21T12:43:59.716Z,21.90
2018-07-21T12:46:28.313Z,21.90
2018-07-21T12:48:57.077Z,22.00
2018-07-21T12:51:25.625Z,21.90
2018-07-21T12:53:54.169Z,22.10
2018-07-21T12:56:29.023Z,22.00
2018-07-21T12:58:57.592Z,22.10
2018-07-21T13:01:26.138Z,21.80
2018-07-21T13:03:54.739Z,21.90
2018-07-21T13:06:23.262Z,22.00
2018-07-21T13:08:52.030Z,22.10
2018-07-21T13:11:20.629Z,22.20
2018-07-21T13:13:49.186Z,22.30
2018-07-21T13:16:17.749Z,22.40
2018-07-21T13:18:46.378Z,22.40
2018-07-21T13:21:14.983Z,22.60
2018-07-21T13:23:43.579Z,22.80
2018-07-21T13:26:12.157Z,22.90
2018-07-21T13:28:41.096Z,22.60
2018-07-21T13:31:09.993Z,22.80
2018-07-21T13:33:39.291Z,22.90
2018-07-21T13:36:07.860Z,22.90
2018-07-21T13:38:36.591Z,22.80
2018-07-21T13:41:05.454Z,22.70
2018-07-21T13:43:34.395Z,22.70
2018-07-21T13:46:03.122Z,22.70
2018-07-21T13:48:31.658Z,22.60
2018-07-21T13:51:00.181Z,22.80
2018-07-21T13:53:28.747Z,23.00
2018-07-21T13:55:57.318Z,23.00
2018-07-21T13:58:25.887Z,23.00
2018-07-21T14:00:54.433Z,22.80
2018-07-21T14:03:22.973Z,22.80
2018-07-21T14:05:51.502Z,23.10
2018-07-21T14:08:20.247Z,23.40
2018-07-21T14:10:48.874Z,23.50
2018-07-21T14:13:17.465Z,23.70
2018-07-21T14:15:46.121Z,23.80
2018-07-21T14:18:14.675Z,23.80
2018-07-21T14:20:43.213Z,23.50
2018-07-21T14:23:11.873Z,23.40
2018-07-21T14:25:40.389Z,23.40
2018-07-21T14:28:08.919Z,23.50
2018-07-21T14:30:37.434Z,23.20
2018-07-21T14:33:06.092Z,23.30
2018-07-21T14:35:34.601Z,23.20
2018-07-21T14:38:03.174Z,23.50
2018-07-21T14:40:31.770Z,23.50
2018-07-21T14:43:00.312Z,23.60
2018-07-21T14:45:28.861Z,23.20
2018-07-21T14:47:57.427Z,23.60
2018-07-21T14:50:26.086Z,23.90
2018-07-21T14:52:54.589Z,23.70
2018-07-21T14:55:23.336Z,23.90
2018-07-21T14:57:52.215Z,23.70
2018-07-21T15:00:20.783Z,23.70
2018-07-21T15:02:49.386Z,23.80
2018-07-21T15:07:46.181Z,23.30
2018-07-21T15:10:14.797Z,23.00
2018-07-21T15:12:43.445Z,22.60
2018-07-21T15:15:12.006Z,22.80
2018-07-21T15:17:40.623Z,22.80
2018-07-21T15:20:09.312Z,22.90
2018-07-21T15:22:37.866Z,22.90
2018-07-21T15:25:06.507Z,22.80
2018-07-21T15:27:35.090Z,22.70
2018-07-21T15:30:03.855Z,23.00
2018-07-21T15:32:32.444Z,22.90
2018-07-21T15:35:01.679Z,22.90
2018-07-21T15:37:30.222Z,23.10
2018-07-21T15:39:58.826Z,22.80
2018-07-21T15:42:27.362Z,22.60
2018-07-21T15:44:55.898Z,22.70
2018-07-21T15:47:24.465Z,22.50
2018-07-21T15:49:53.291Z,22.60
2018-07-21T15:52:21.886Z,22.90
2018-07-21T15:54:50.502Z,23.20
2018-07-21T15:57:19.031Z,23.20
2018-07-21T15:59:47.571Z,23.00
2018-07-21T16:02:16.199Z,22.70
2018-07-21T16:04:44.710Z,22.60
2018-07-21T16:07:13.236Z,22.60
2018-07-21T16:09:41.917Z,22.50
2018-07-21T16:12:10.437Z,22.40
2018-07-21T16:17:07.227Z,22.30
2018-07-21T16:19:35.754Z,22.30
2018-07-21T16:22:04.269Z,22.40
2018-07-21T16:27:01.040Z,22.40
2018-07-21T16:29:29.567Z,22.50
2018-07-21T16:31:58.192Z,22.60
2018-07-21T16:34:26.715Z,22.40
2018-07-21T16:36:55.253Z,22.50
2018-07-21T16:39:23.909Z,22.50
2018-07-21T16:41:52.431Z,22.60
2018-07-21T16:44:20.994Z,22.60
2018-07-21T16:46:49.582Z,22.50
2018-07-21T16:49:18.144Z,22.30
2018-07-21T16:51:46.699Z,22.00
2018-07-21T16:54:15.322Z,21.90
2018-07-21T16:56:43.869Z,22.00
2018-07-21T16:59:12.452Z,21.90
2018-07-21T17:01:41.023Z,22.00
2018-07-21T17:04:09.598Z,22.00
2018-07-21T17:06:38.167Z,21.90
2018-07-21T17:09:08.642Z,21.80
2018-07-21T17:11:37.211Z,21.90
2018-07-21T17:14:05.887Z,21.80
2018-07-21T17:16:34.464Z,21.80
2018-07-21T17:19:03.540Z,21.70
2018-07-21T17:21:32.085Z,21.70
2018-07-21T17:24:00.712Z,21.70
2018-07-21T17:26:29.226Z,21.70
2018-07-21T17:28:57.963Z,21.70
2018-07-21T17:31:26.562Z,21.60
2018-07-21T17:33:55.371Z,21.50
2018-07-21T17:36:23.941Z,21.60
2018-07-21T17:38:52.557Z,21.50
2018-07-21T17:41:21.129Z,21.50
2018-07-21T17:43:49.694Z,21.40
2018-07-21T17:46:18.260Z,21.40
2018-07-21T17:48:46.814Z,21.30
2018-07-21T17:51:15.461Z,21.20
2018-07-21T17:53:44.049Z,21.20
2018-07-21T17:56:12.621Z,21.10
2018-07-21T17:58:41.231Z,20.90
2018-07-21T18:01:09.849Z,20.90
2018-07-21T18:03:38.414Z,20.80
2018-07-21T18:06:07.459Z,20.60
2018-07-21T18:08:36.042Z,20.50
2018-07-21T18:11:04.596Z,20.50
2018-07-21T18:13:33.145Z,20.40
2018-07-21T18:16:01.878Z,20.30
2018-07-21T18:18:30.463Z,20.20
2018-07-21T18:20:59.026Z,20.10
2018-07-21T18:23:27.617Z,20.10
2018-07-21T18:25:56.150Z,19.90
2018-07-21T18:28:24.742Z,19.90
2018-07-21T18:30:53.366Z,19.80
2018-07-21T18:33:21.935Z,19.70
2018-07-21T18:35:50.488Z,19.60
2018-07-21T18:38:19.371Z,19.50
2018-07-21T18:40:47.953Z,19.40
2018-07-21T18:43:17.655Z,19.30
2018-07-21T18:45:46.278Z,19.30
2018-07-21T18:48:15.044Z,19.30
2018-07-21T18:50:43.527Z,19.20
2018-07-21T18:53:12.207Z,19.20
2018-07-21T18:55:40.714Z,19.10
2018-07-21T18:58:09.273Z,19.20
2018-07-21T19:00:37.802Z,19.20
2018-07-21T19:03:06.311Z,19.20
2018-07-21T19:05:34.804Z,19.20
2018-07-21T19:08:03.458Z,19.10
2018-07-21T19:10:32.186Z,19.10
2018-07-21T19:13:00.699Z,19.10
2018-07-21T19:15:34.610Z,19.00
2018-07-21T19:18:03.155Z,18.90
2018-07-21T19:20:37.491Z,18.90
2018-07-21T19:23:06.090Z,18.90
2018-07-21T19:25:39.985Z,18.90
2018-07-21T19:28:08.508Z,18.80
2018-07-21T19:30:37.018Z,18.80
2018-07-21T19:33:05.675Z,18.80
2018-07-21T19:38:02.523Z,18.70
2018-07-21T19:40:31.055Z,18.60
2018-07-21T19:42:59.681Z,18.40
2018-07-21T19:45:28.185Z,18.40
2018-07-21T19:50:24.999Z,18.50
2018-07-21T19:52:53.517Z,18.30
2018-07-21T19:55:22.089Z,18.30
2018-07-21T19:57:51.346Z,18.40
2018-07-21T20:00:20.507Z,18.40
2018-07-21T20:02:49.121Z,18.40
2018-07-21T20:05:17.717Z,18.50
2018-07-21T20:07:46.203Z,18.50
2018-07-21T20:10:15.296Z,18.40
2018-07-21T20:12:44.422Z,18.40
2018-07-21T20:15:12.906Z,18.30
2018-07-21T20:17:41.472Z,18.30
2018-07-21T20:20:11.021Z,18.30
2018-07-21T20:22:39.618Z,18.30
2018-07-21T20:25:08.214Z,18.30
2018-07-21T20:27:37.391Z,18.20
2018-07-21T20:30:06.466Z,18.20
2018-07-21T20:32:34.989Z,18.30
2018-07-21T20:35:03.595Z,18.20
2018-07-21T20:37:32.183Z,18.00
2018-07-21T20:40:00.832Z,18.10
2018-07-21T20:42:29.897Z,18.20
2018-07-21T20:44:58.462Z,18.20
2018-07-21T20:47:26.990Z,18.10
2018-07-21T20:49:55.635Z,18.20
2018-07-21T20:52:24.179Z,18.20
2018-07-21T20:54:52.739Z,18.10
2018-07-21T20:57:24.419Z,18.10
2018-07-21T20:59:56.332Z,18.20
2018-07-21T21:02:25.109Z,18.20
2018-07-21T21:04:53.642Z,18.30
2018-07-21T21:07:28.037Z,18.40
2018-07-21T21:10:27.070Z,18.40
2018-07-21T21:12:55.818Z,18.50
2018-07-21T21:15:24.452Z,18.40
2018-07-21T21:17:53.212Z,18.50
2018-07-21T21:20:21.794Z,18.50
2018-07-21T21:22:50.421Z,18.60
2018-07-21T21:25:19.039Z,18.60
2018-07-21T21:31:18.223Z,18.70
2018-07-21T21:33:46.762Z,18.60
2018-07-21T21:36:15.351Z,18.60
2018-07-21T21:38:44.143Z,18.60
2018-07-21T21:41:12.704Z,18.60
2018-07-21T21:43:41.220Z,18.60
2018-07-21T21:46:09.781Z,18.60
2018-07-21T21:48:38.414Z,18.60
2018-07-21T21:51:06.942Z,18.60
2018-07-21T21:53:35.510Z,18.60
2018-07-21T21:56:04.095Z,18.60
2018-07-21T21:58:32.659Z,18.60
2018-07-21T22:01:06.678Z,18.60
2018-07-21T22:03:35.750Z,18.60
2018-07-21T22:06:04.797Z,18.60
2018-07-21T22:08:33.918Z,18.60
2018-07-21T22:11:02.899Z,18.60
2018-07-21T22:13:31.626Z,18.60
2018-07-21T22:16:00.608Z,18.50
2018-07-21T22:18:30.257Z,18.50
2018-07-21T22:20:58.766Z,18.50
2018-07-21T22:23:27.383Z,18.50
2018-07-21T22:25:55.914Z,18.40
2018-07-21T22:30:52.731Z,18.40
2018-07-21T22:33:21.239Z,18.30
2018-07-21T22:35:49.896Z,18.30
2018-07-21T22:38:18.479Z,18.30
2018-07-21T22:40:47.063Z,18.30
2018-07-21T22:43:15.725Z,18.30
2018-07-21T22:45:44.342Z,18.30
2018-07-21T22:48:12.897Z,18.30
2018-07-21T22:50:41.466Z,18.30
2018-07-21T22:53:10.110Z,18.40
2018-07-21T22:55:38.618Z,18.40
2018-07-21T22:58:07.167Z,18.40
2018-07-21T23:00:35.854Z,18.30
2018-07-21T23:03:04.466Z,18.40
2018-07-21T23:05:32.971Z,18.30
2018-07-21T23:08:01.529Z,18.30
2018-07-21T23:10:30.140Z,18.20
2018-07-21T23:12:58.781Z,18.20
2018-07-21T23:15:27.325Z,18.30
2018-07-21T23:17:55.893Z,18.30
2018-07-21T23:20:24.605Z,18.40
2018-07-21T23:22:53.167Z,18.40
2018-07-21T23:25:21.694Z,18.40
2018-07-21T23:27:50.220Z,18.40
2018-07-21T23:30:18.781Z,18.40
2018-07-21T23:32:47.303Z,18.30
2018-07-21T23:35:15.845Z,18.30
2018-07-21T23:37:44.414Z,18.20
2018-07-21T23:40:12.938Z,18.20
2018-07-21T23:42:41.499Z,18.20
2018-07-21T23:45:10.092Z,18.30
2018-07-21T23:47:38.622Z,18.30
2018-07-21T23:50:07.447Z,18.30
2018-07-21T23:52:36.003Z,18.40
2018-07-21T23:55:06.580Z,18.40
2018-07-21T23:57:35.185Z,18.40
